SCBA/BBA METAR and TAF weather

Enter ICAO airport designator
Station Type Date Time Source
SCBA METAR 2018/12/19 03:00 UTC NOAA

SCBA 190300Z AUTO 31011KT 9999 SCT050 BKN068 BKN120 10/06 Q1012


Station Type Date Time Source
SCBA Decoded METAR 2018/12/19 03:00 UTC NOAA

Balmaceda, Chile (SCBA) 45-55S 071-41W 520M
Dec 18, 2018 - 10:00 PM EST / 2018.12.19 0300 UTC
Wind: from the NW (310 degrees) at 13 MPH (11 KT):0
Visibility: greater than 7 mile(s):0
Sky conditions: mostly cloudy
Temperature: 50 F (10 C)
Dew Point: 42 F (6 C)
Relative Humidity: 76%
Pressure (altimeter): 29.88 in. Hg (1012 hPa)
ob: SCBA 190300Z AUTO 31011KT 9999 SCT050 BKN068 BKN120 10/06 Q1012
cycle: 3

Station Type Date Time Source
SCBA TAF 2018/12/18 18:03 UTC NOAA

TAF SCBA 181605Z 1818/1918 30025G35KT CAVOK TX20/1818Z TN08/1910Z
BECMG 1900/1902 30020KT SCT040
BECMG 1904/1906 30010KT
BECMG 1907/1909 8000 -SHRA BKN030
BECMG 1916/1918 30020KT


Example: see airport list